Hovedside
METAR-TAF:

METAR-TAF

Lufthavner :

Bardufoss lufthavn

Bardufoss, Norge

breddegrad: 69-04N, lengdegrad: 018-32E, høyde over havet: 7 m

Gjeldene værobservasjon

Denne rapporten ble laget for 21 minutter siden, klokken 18:50 UTC
Vind 9 kt fra Sørvest, skiftende mellom Sør og Vest
Temperatur 3°C
Luftfuktighet 81%
Trykk 1026 hPa
Sikt 10 km eller mer
Få skyer i en høyde av 1500 ft
Spredte skyer i en høyde av 2500 ft
Brutte skyer i en høyde av 3500 ft
regnbyger i nærheten

METAR: ENDU 211850Z 22009KT 180V260 9999 VCSH FEW015 SCT025 BKN035 03/M00 Q1026 RMK WIND 1100FT 22016KT WIND 2200FT 26020KT

Tid: 20:11 (19:11 UTC)

Varsel

Varsel gyldig fra 21. klokken 18 UTC til 22. klokken 18 UTC
Vind 8 kt fra Vest-sørvest
Sikt 10 km eller mer
Få skyer i en høyde av 1000 ft
Brutte skyer i en høyde av 3500 ft
Midlertidig
fra 21. klokken 18 UTC til 21. klokken 24 UTC
Vind 15 kt fra Sørvest med vindkast opp mot 25 kt

TAF: ENDU 2118/2218 24008KT 9999 FEW010 BKN035 TEMPO 2118/2124 22015G25KT

Værobservasjoner og værvarsel for over 4000 flyplasser (METAR- og TAF-rapporter).

Tilgjengelige stasjoner er representert av de røde og gule prikkene på kartet.

Hold musepekeren over prikken for å se navnet på stasjonen.

Klikk så for å se værobservasjoner og -varsler.

For å forandre kartet kan du klikke på den grønne knappen med svart kryss for å zoome inn, på den grønne knappen med strek for å zoome ut, eller på de grønne pilene for å se tilstøtende kart.


METAR-TAF: